sensor_id;sensor_type;location;lat;lon;timestamp;pressure;altitude;pressure_sealevel;temperature;humidity
12594;BME280;6362;50.208;9.182;2023-02-28T00:00:32;100973.34;;;-2.83;72.20
12594;BME280;6362;50.208;9.182;2023-02-28T00:02:58;100973.97;;;-2.87;71.80
12594;BME280;6362;50.208;9.182;2023-02-28T00:05:25;100975.91;;;-2.83;72.14
12594;BME280;6362;50.208;9.182;2023-02-28T00:07:51;100976.38;;;-2.89;72.23
12594;BME280;6362;50.208;9.182;2023-02-28T00:10:19;100978.06;;;-2.89;72.50
12594;BME280;6362;50.208;9.182;2023-02-28T00:12:53;100973.66;;;-2.92;72.55
12594;BME280;6362;50.208;9.182;2023-02-28T00:15:20;100969.47;;;-2.92;73.28
12594;BME280;6362;50.208;9.182;2023-02-28T00:17:46;100975.72;;;-2.86;72.86
12594;BME280;6362;50.208;9.182;2023-02-28T00:20:13;100974.94;;;-2.85;73.11
12594;BME280;6362;50.208;9.182;2023-02-28T00:22:40;100973.84;;;-2.89;73.34
12594;BME280;6362;50.208;9.182;2023-02-28T00:25:06;100976.13;;;-2.94;73.11
12594;BME280;6362;50.208;9.182;2023-02-28T00:27:33;100975.25;;;-2.94;73.44
12594;BME280;6362;50.208;9.182;2023-02-28T00:29:59;100972.59;;;-2.96;73.59
12594;BME280;6362;50.208;9.182;2023-02-28T00:32:26;100971.63;;;-2.98;73.76
12594;BME280;6362;50.208;9.182;2023-02-28T00:34:51;100967.03;;;-3.03;73.74
12594;BME280;6362;50.208;9.182;2023-02-28T00:37:17;100971.81;;;-3.08;73.90
12594;BME280;6362;50.208;9.182;2023-02-28T00:39:42;100975.16;;;-3.09;73.81
12594;BME280;6362;50.208;9.182;2023-02-28T00:42:08;100976.81;;;-3.09;73.84
12594;BME280;6362;50.208;9.182;2023-02-28T00:44:33;100978.56;;;-3.08;73.94
12594;BME280;6362;50.208;9.182;2023-02-28T00:47:00;100981.13;;;-3.08;73.51
12594;BME280;6362;50.208;9.182;2023-02-28T00:49:26;100975.53;;;-3.03;73.88
12594;BME280;6362;50.208;9.182;2023-02-28T00:51:53;100977.00;;;-3.06;73.71
12594;BME280;6362;50.208;9.182;2023-02-28T00:54:20;100975.06;;;-3.10;74.19
12594;BME280;6362;50.208;9.182;2023-02-28T00:56:49;100972.41;;;-3.12;74.38
12594;BME280;6362;50.208;9.182;2023-02-28T00:59:16;100975.94;;;-3.10;74.12
12594;BME280;6362;50.208;9.182;2023-02-28T01:01:42;100974.63;;;-3.16;73.94
12594;BME280;6362;50.208;9.182;2023-02-28T01:04:08;100969.28;;;-3.21;74.37
12594;BME280;6362;50.208;9.182;2023-02-28T01:06:33;100974.47;;;-3.20;74.32
12594;BME280;6362;50.208;9.182;2023-02-28T01:08:59;100971.72;;;-3.23;74.81
12594;BME280;6362;50.208;9.182;2023-02-28T01:11:25;100968.09;;;-3.26;74.54
12594;BME280;6362;50.208;9.182;2023-02-28T01:13:51;100974.06;;;-3.26;74.66
12594;BME280;6362;50.208;9.182;2023-02-28T01:16:17;100965.94;;;-3.33;74.54
12594;BME280;6362;50.208;9.182;2023-02-28T01:18:42;100967.72;;;-3.32;75.06
12594;BME280;6362;50.208;9.182;2023-02-28T01:21:11;100972.81;;;-3.32;75.10
12594;BME280;6362;50.208;9.182;2023-02-28T01:23:38;100965.25;;;-3.31;74.79
12594;BME280;6362;50.208;9.182;2023-02-28T01:26:09;100964.31;;;-3.33;74.96
12594;BME280;6362;50.208;9.182;2023-02-28T01:28:35;100971.00;;;-3.33;74.38
12594;BME280;6362;50.208;9.182;2023-02-28T01:31:00;100964.00;;;-3.37;74.29
12594;BME280;6362;50.208;9.182;2023-02-28T01:33:26;100969.09;;;-3.37;74.25
12594;BME280;6362;50.208;9.182;2023-02-28T01:36:07;100964.47;;;-3.43;74.67
12594;BME280;6362;50.208;9.182;2023-02-28T01:38:34;100960.84;;;-3.47;74.81
12594;BME280;6362;50.208;9.182;2023-02-28T01:41:00;100965.16;;;-3.46;74.70
12594;BME280;6362;50.208;9.182;2023-02-28T01:43:29;100961.41;;;-3.51;74.33
12594;BME280;6362;50.208;9.182;2023-02-28T01:45:56;100958.69;;;-3.54;74.50
12594;BME280;6362;50.208;9.182;2023-02-28T01:48:31;100957.22;;;-3.50;74.39
12594;BME280;6362;50.208;9.182;2023-02-28T01:51:00;100954.41;;;-3.55;73.99
12594;BME280;6362;50.208;9.182;2023-02-28T01:53:34;100959.75;;;-3.50;74.20
12594;BME280;6362;50.208;9.182;2023-02-28T01:56:04;100953.22;;;-3.47;73.82
12594;BME280;6362;50.208;9.182;2023-02-28T01:58:31;100954.50;;;-3.40;73.98
12594;BME280;6362;50.208;9.182;2023-02-28T02:00:57;100949.53;;;-3.38;74.17
12594;BME280;6362;50.208;9.182;2023-02-28T02:03:23;100950.19;;;-3.41;74.27
12594;BME280;6362;50.208;9.182;2023-02-28T02:05:48;100948.34;;;-3.43;74.05
12594;BME280;6362;50.208;9.182;2023-02-28T02:08:21;100949.88;;;-3.46;74.40
12594;BME280;6362;50.208;9.182;2023-02-28T02:13:42;100944.97;;;-3.56;74.60
12594;BME280;6362;50.208;9.182;2023-02-28T02:39:31;100944.84;;;-3.84;75.74
12594;BME280;6362;50.208;9.182;2023-02-28T02:42:06;100934.59;;;-3.85;76.39
12594;BME280;6362;50.208;9.182;2023-02-28T02:44:43;100936.03;;;-3.89;76.22
12594;BME280;6362;50.208;9.182;2023-02-28T02:47:17;100932.44;;;-3.92;76.36
12594;BME280;6362;50.208;9.182;2023-02-28T02:49:50;100934.56;;;-3.99;76.98
12594;BME280;6362;50.208;9.182;2023-02-28T02:52:20;100936.50;;;-3.94;76.38
12594;BME280;6362;50.208;9.182;2023-02-28T02:54:48;100935.94;;;-3.90;76.14
12594;BME280;6362;50.208;9.182;2023-02-28T02:57:21;100938.56;;;-3.89;76.20
12594;BME280;6362;50.208;9.182;2023-02-28T02:59:49;100928.13;;;-3.93;76.28
12594;BME280;6362;50.208;9.182;2023-02-28T03:02:17;100942.78;;;-3.89;75.65
12594;BME280;6362;50.208;9.182;2023-02-28T03:04:46;100939.25;;;-3.91;75.87
12594;BME280;6362;50.208;9.182;2023-02-28T03:07:14;100938.16;;;-3.95;76.42
12594;BME280;6362;50.208;9.182;2023-02-28T03:09:39;100930.56;;;-3.95;76.03
12594;BME280;6362;50.208;9.182;2023-02-28T03:12:09;100933.69;;;-3.99;76.56
12594;BME280;6362;50.208;9.182;2023-02-28T03:20:17;100939.44;;;-4.02;76.44
12594;BME280;6362;50.208;9.182;2023-02-28T03:23:22;100937.41;;;-3.94;76.12
12594;BME280;6362;50.208;9.182;2023-02-28T03:26:16;100938.78;;;-3.99;75.49
12594;BME280;6362;50.208;9.182;2023-02-28T03:28:54;100937.91;;;-4.00;75.74
12594;BME280;6362;50.208;9.182;2023-02-28T03:31:56;100936.00;;;-4.02;75.96
12594;BME280;6362;50.208;9.182;2023-02-28T03:34:24;100938.66;;;-4.01;75.99
12594;BME280;6362;50.208;9.182;2023-02-28T03:36:59;100938.38;;;-4.05;76.56
12594;BME280;6362;50.208;9.182;2023-02-28T03:42:01;100935.50;;;-4.10;76.56
12594;BME280;6362;50.208;9.182;2023-02-28T03:44:32;100929.56;;;-4.10;76.65
12594;BME280;6362;50.208;9.182;2023-02-28T03:49:45;100937.59;;;-4.04;76.83
12594;BME280;6362;50.208;9.182;2023-02-28T03:52:14;100930.16;;;-4.01;76.60
12594;BME280;6362;50.208;9.182;2023-02-28T03:54:45;100930.16;;;-4.01;76.31
12594;BME280;6362;50.208;9.182;2023-02-28T03:57:40;100932.81;;;-4.00;75.99
12594;BME280;6362;50.208;9.182;2023-02-28T04:00:13;100932.22;;;-3.95;75.82
12594;BME280;6362;50.208;9.182;2023-02-28T04:02:41;100934.09;;;-3.93;76.17
12594;BME280;6362;50.208;9.182;2023-02-28T04:05:07;100938.88;;;-3.84;76.22
12594;BME280;6362;50.208;9.182;2023-02-28T04:07:32;100932.94;;;-3.85;76.26
12594;BME280;6362;50.208;9.182;2023-02-28T04:09:58;100935.78;;;-3.80;76.17
12594;BME280;6362;50.208;9.182;2023-02-28T04:12:24;100937.06;;;-3.74;75.39
12594;BME280;6362;50.208;9.182;2023-02-28T04:14:50;100943.31;;;-3.68;75.72
12594;BME280;6362;50.208;9.182;2023-02-28T04:17:16;100941.88;;;-3.52;75.29
12594;BME280;6362;50.208;9.182;2023-02-28T04:19:42;100937.97;;;-3.47;74.57
12594;BME280;6362;50.208;9.182;2023-02-28T04:22:08;100937.38;;;-3.42;74.29
12594;BME280;6362;50.208;9.182;2023-02-28T04:24:35;100943.84;;;-3.34;74.05
12594;BME280;6362;50.208;9.182;2023-02-28T04:27:01;100944.44;;;-3.25;73.99
12594;BME280;6362;50.208;9.182;2023-02-28T04:29:29;100940.59;;;-3.19;73.23
12594;BME280;6362;50.208;9.182;2023-02-28T04:31:56;100944.72;;;-3.07;72.55
12594;BME280;6362;50.208;9.182;2023-02-28T04:34:26;100938.66;;;-3.09;72.62
12594;BME280;6362;50.208;9.182;2023-02-28T04:36:53;100949.22;;;-3.03;72.02
12594;BME280;6362;50.208;9.182;2023-02-28T04:39:23;100938.72;;;-2.95;71.46
12594;BME280;6362;50.208;9.182;2023-02-28T04:41:49;100946.06;;;-2.86;70.91
12594;BME280;6362;50.208;9.182;2023-02-28T04:44:15;100952.22;;;-2.82;70.65
12594;BME280;6362;50.208;9.182;2023-02-28T04:46:41;100944.47;;;-2.71;70.35
12594;BME280;6362;50.208;9.182;2023-02-28T04:49:08;100943.59;;;-2.71;70.22
12594;BME280;6362;50.208;9.182;2023-02-28T04:51:34;100932.78;;;-2.67;69.92
12594;BME280;6362;50.208;9.182;2023-02-28T04:53:59;100942.22;;;-2.66;68.99
12594;BME280;6362;50.208;9.182;2023-02-28T04:56:24;100941.50;;;-2.63;69.60
12594;BME280;6362;50.208;9.182;2023-02-28T04:58:50;100939.03;;;-2.62;69.62
12594;BME280;6362;50.208;9.182;2023-02-28T05:01:26;100941.59;;;-2.62;69.28
12594;BME280;6362;50.208;9.182;2023-02-28T05:03:54;100943.38;;;-2.61;69.27
12594;BME280;6362;50.208;9.182;2023-02-28T05:06:20;100932.28;;;-2.61;69.35
12594;BME280;6362;50.208;9.182;2023-02-28T05:08:46;100936.41;;;-2.63;69.13
12594;BME280;6362;50.208;9.182;2023-02-28T05:11:25;100940.72;;;-2.62;68.71
12594;BME280;6362;50.208;9.182;2023-02-28T05:13:51;100937.78;;;-2.69;69.03
12594;BME280;6362;50.208;9.182;2023-02-28T05:16:17;100943.38;;;-2.74;69.01
12594;BME280;6362;50.208;9.182;2023-02-28T05:18:43;100933.06;;;-2.62;68.26
12594;BME280;6362;50.208;9.182;2023-02-28T05:23:52;100941.81;;;-2.72;68.08
12594;BME280;6362;50.208;9.182;2023-02-28T05:26:18;100940.47;;;-2.80;68.07
12594;BME280;6362;50.208;9.182;2023-02-28T05:28:43;100946.75;;;-2.88;67.85
12594;BME280;6362;50.208;9.182;2023-02-28T05:31:12;100945.59;;;-2.94;68.55
12594;BME280;6362;50.208;9.182;2023-02-28T05:33:38;100950.97;;;-3.02;68.97
12594;BME280;6362;50.208;9.182;2023-02-28T05:36:04;100957.50;;;-3.06;69.68
12594;BME280;6362;50.208;9.182;2023-02-28T05:38:30;100954.50;;;-3.13;70.17
12594;BME280;6362;50.208;9.182;2023-02-28T05:40:55;100955.00;;;-3.19;70.60
12594;BME280;6362;50.208;9.182;2023-02-28T05:43:28;100953.50;;;-3.29;71.02
12594;BME280;6362;50.208;9.182;2023-02-28T05:45:54;100959.09;;;-3.34;71.53
12594;BME280;6362;50.208;9.182;2023-02-28T05:48:19;100956.72;;;-3.45;71.44
12594;BME280;6362;50.208;9.182;2023-02-28T05:50:44;100953.91;;;-3.49;71.97
12594;BME280;6362;50.208;9.182;2023-02-28T05:53:11;100955.94;;;-3.57;71.87
12594;BME280;6362;50.208;9.182;2023-02-28T05:55:37;100954.19;;;-3.58;72.09
12594;BME280;6362;50.208;9.182;2023-02-28T05:58:03;100952.44;;;-3.59;72.40
12594;BME280;6362;50.208;9.182;2023-02-28T06:00:28;100948.50;;;-3.67;72.63
12594;BME280;6362;50.208;9.182;2023-02-28T06:02:54;100953.41;;;-3.70;72.64
12594;BME280;6362;50.208;9.182;2023-02-28T06:05:23;100958.47;;;-3.70;73.16
12594;BME280;6362;50.208;9.182;2023-02-28T06:07:49;100958.72;;;-3.79;73.12
12594;BME280;6362;50.208;9.182;2023-02-28T06:10:15;100957.94;;;-3.78;74.57
12594;BME280;6362;50.208;9.182;2023-02-28T06:12:41;100954.75;;;-3.75;74.66
12594;BME280;6362;50.208;9.182;2023-02-28T06:15:10;100956.50;;;-3.74;74.71
12594;BME280;6362;50.208;9.182;2023-02-28T06:17:37;100962.38;;;-3.75;74.24
12594;BME280;6362;50.208;9.182;2023-02-28T06:20:03;100960.81;;;-3.73;73.42
12594;BME280;6362;50.208;9.182;2023-02-28T06:22:29;100973.31;;;-3.76;73.50
12594;BME280;6362;50.208;9.182;2023-02-28T06:24:54;100970.47;;;-3.81;73.56
12594;BME280;6362;50.208;9.182;2023-02-28T06:27:20;100972.03;;;-3.83;73.88
12594;BME280;6362;50.208;9.182;2023-02-28T06:29:45;100978.66;;;-3.85;73.80
12594;BME280;6362;50.208;9.182;2023-02-28T06:32:11;100980.31;;;-3.85;74.00
12594;BME280;6362;50.208;9.182;2023-02-28T06:34:36;100979.34;;;-3.87;73.84
12594;BME280;6362;50.208;9.182;2023-02-28T06:37:02;100979.13;;;-3.90;73.83
12594;BME280;6362;50.208;9.182;2023-02-28T06:39:29;100984.31;;;-3.89;73.60
12594;BME280;6362;50.208;9.182;2023-02-28T06:41:54;100984.13;;;-3.92;73.75
12594;BME280;6362;50.208;9.182;2023-02-28T06:44:20;100989.63;;;-3.86;73.74
12594;BME280;6362;50.208;9.182;2023-02-28T06:46:46;100988.41;;;-3.91;73.92
12594;BME280;6362;50.208;9.182;2023-02-28T06:49:12;100985.69;;;-3.94;73.60
12594;BME280;6362;50.208;9.182;2023-02-28T06:51:40;100993.59;;;-3.89;74.04
12594;BME280;6362;50.208;9.182;2023-02-28T06:54:07;100992.72;;;-3.90;73.91
12594;BME280;6362;50.208;9.182;2023-02-28T06:56:35;101003.19;;;-3.85;73.92
12594;BME280;6362;50.208;9.182;2023-02-28T06:59:00;100995.56;;;-3.85;74.04
12594;BME280;6362;50.208;9.182;2023-02-28T07:01:26;101005.00;;;-3.71;73.05
12594;BME280;6362;50.208;9.182;2023-02-28T07:03:53;101003.06;;;-3.62;73.14
12594;BME280;6362;50.208;9.182;2023-02-28T07:06:23;101004.16;;;-3.58;73.11
12594;BME280;6362;50.208;9.182;2023-02-28T07:08:50;101001.91;;;-3.54;72.75
12594;BME280;6362;50.208;9.182;2023-02-28T07:11:16;101006.22;;;-3.39;72.75
12594;BME280;6362;50.208;9.182;2023-02-28T07:13:42;101006.66;;;-3.20;72.05
12594;BME280;6362;50.208;9.182;2023-02-28T07:16:09;101007.13;;;-3.12;71.57
12594;BME280;6362;50.208;9.182;2023-02-28T07:18:36;101003.72;;;-3.00;71.13
12594;BME280;6362;50.208;9.182;2023-02-28T07:21:02;101004.50;;;-2.87;70.71
12594;BME280;6362;50.208;9.182;2023-02-28T07:23:28;101001.63;;;-2.79;70.57
12594;BME280;6362;50.208;9.182;2023-02-28T07:25:53;101004.47;;;-2.61;69.70
12594;BME280;6362;50.208;9.182;2023-02-28T07:28:19;101004.34;;;-2.49;68.53
12594;BME280;6362;50.208;9.182;2023-02-28T07:30:44;101001.63;;;-2.24;67.36
12594;BME280;6362;50.208;9.182;2023-02-28T07:33:10;100996.28;;;-1.86;78.75
12594;BME280;6362;50.208;9.182;2023-02-28T07:35:35;101000.34;;;-1.16;77.13
12594;BME280;6362;50.208;9.182;2023-02-28T07:38:02;100997.03;;;-0.84;77.69
12594;BME280;6362;50.208;9.182;2023-02-28T07:40:28;100994.22;;;-0.57;71.93
12594;BME280;6362;50.208;9.182;2023-02-28T07:42:53;100996.81;;;-0.24;69.73
12594;BME280;6362;50.208;9.182;2023-02-28T07:45:19;100990.44;;;-0.33;63.44
12594;BME280;6362;50.208;9.182;2023-02-28T07:47:45;100992.69;;;-0.39;60.83
12594;BME280;6362;50.208;9.182;2023-02-28T07:50:13;100994.09;;;-0.44;61.34
12594;BME280;6362;50.208;9.182;2023-02-28T07:52:39;100997.97;;;-0.50;60.98
12594;BME280;6362;50.208;9.182;2023-02-28T07:55:07;100999.91;;;-0.46;60.84
12594;BME280;6362;50.208;9.182;2023-02-28T07:57:33;101001.13;;;-0.40;59.72
12594;BME280;6362;50.208;9.182;2023-02-28T07:59:59;101003.44;;;-0.44;59.94
12594;BME280;6362;50.208;9.182;2023-02-28T08:02:25;101009.09;;;-0.34;59.93
12594;BME280;6362;50.208;9.182;2023-02-28T08:04:50;101002.25;;;-0.18;59.59
12594;BME280;6362;50.208;9.182;2023-02-28T08:07:16;101012.47;;;-0.18;59.12
12594;BME280;6362;50.208;9.182;2023-02-28T08:09:42;100999.88;;;-0.15;58.30
12594;BME280;6362;50.208;9.182;2023-02-28T08:12:09;101005.31;;;-0.09;58.43
12594;BME280;6362;50.208;9.182;2023-02-28T08:14:35;101002.34;;;-0.01;57.83
12594;BME280;6362;50.208;9.182;2023-02-28T08:17:00;101007.75;;;0.22;56.68
12594;BME280;6362;50.208;9.182;2023-02-28T08:19:26;101009.84;;;0.29;55.99
12594;BME280;6362;50.208;9.182;2023-02-28T08:21:51;100999.19;;;0.38;54.94
12594;BME280;6362;50.208;9.182;2023-02-28T08:24:16;101008.22;;;0.47;55.32
12594;BME280;6362;50.208;9.182;2023-02-28T08:26:42;101006.38;;;0.45;54.13
12594;BME280;6362;50.208;9.182;2023-02-28T08:29:07;101007.28;;;0.63;54.07
12594;BME280;6362;50.208;9.182;2023-02-28T08:31:33;101006.38;;;0.79;54.01
12594;BME280;6362;50.208;9.182;2023-02-28T08:34:04;101007.03;;;0.93;53.92
12594;BME280;6362;50.208;9.182;2023-02-28T08:36:30;101003.94;;;1.00;52.72
12594;BME280;6362;50.208;9.182;2023-02-28T08:38:56;101000.38;;;1.14;51.68
12594;BME280;6362;50.208;9.182;2023-02-28T08:41:23;100996.97;;;1.33;51.39
12594;BME280;6362;50.208;9.182;2023-02-28T08:43:48;100997.75;;;1.50;50.62
12594;BME280;6362;50.208;9.182;2023-02-28T08:46:13;100994.09;;;1.63;49.18
12594;BME280;6362;50.208;9.182;2023-02-28T08:48:39;100996.94;;;1.88;48.65
12594;BME280;6362;50.208;9.182;2023-02-28T08:51:08;100998.84;;;2.11;49.19
12594;BME280;6362;50.208;9.182;2023-02-28T08:53:37;100997.13;;;2.31;48.04
12594;BME280;6362;50.208;9.182;2023-02-28T08:56:12;100992.03;;;2.33;47.67
12594;BME280;6362;50.208;9.182;2023-02-28T08:58:38;100996.59;;;2.59;47.00
12594;BME280;6362;50.208;9.182;2023-02-28T09:01:11;100996.22;;;2.92;46.32
12594;BME280;6362;50.208;9.182;2023-02-28T09:03:38;100993.88;;;2.98;46.16
12594;BME280;6362;50.208;9.182;2023-02-28T09:06:04;100996.81;;;3.28;45.82
12594;BME280;6362;50.208;9.182;2023-02-28T09:08:30;100992.19;;;3.42;45.08
12594;BME280;6362;50.208;9.182;2023-02-28T09:10:57;100989.78;;;3.47;44.07
12594;BME280;6362;50.208;9.182;2023-02-28T09:13:26;100984.03;;;3.76;43.86
12594;BME280;6362;50.208;9.182;2023-02-28T09:15:52;100994.63;;;3.84;44.08
12594;BME280;6362;50.208;9.182;2023-02-28T09:18:18;100982.88;;;4.16;43.57
12594;BME280;6362;50.208;9.182;2023-02-28T09:20:44;100998.06;;;4.32;41.21
12594;BME280;6362;50.208;9.182;2023-02-28T09:23:11;100986.28;;;4.15;40.68
12594;BME280;6362;50.208;9.182;2023-02-28T09:25:44;100971.84;;;4.18;41.05
12594;BME280;6362;50.208;9.182;2023-02-28T09:28:10;100975.44;;;4.23;41.50
12594;BME280;6362;50.208;9.182;2023-02-28T09:30:36;100980.59;;;4.49;39.39
12594;BME280;6362;50.208;9.182;2023-02-28T09:33:02;100970.88;;;4.40;39.63
12594;BME280;6362;50.208;9.182;2023-02-28T09:35:27;100977.50;;;4.59;39.25
12594;BME280;6362;50.208;9.182;2023-02-28T09:37:53;100986.50;;;4.97;39.72
12594;BME280;6362;50.208;9.182;2023-02-28T09:40:24;100975.94;;;4.90;38.85
12594;BME280;6362;50.208;9.182;2023-02-28T09:42:53;100974.25;;;4.90;37.43
12594;BME280;6362;50.208;9.182;2023-02-28T09:45:30;100986.72;;;5.05;37.58
12594;BME280;6362;50.208;9.182;2023-02-28T09:48:12;100978.03;;;5.28;37.05
12594;BME280;6362;50.208;9.182;2023-02-28T09:50:45;100978.56;;;5.47;37.19
12594;BME280;6362;50.208;9.182;2023-02-28T09:53:26;100979.31;;;5.43;36.38
12594;BME280;6362;50.208;9.182;2023-02-28T09:55:55;100966.69;;;5.52;35.79
12594;BME280;6362;50.208;9.182;2023-02-28T09:58:28;100984.78;;;5.25;37.39
12594;BME280;6362;50.208;9.182;2023-02-28T10:01:09;100990.47;;;5.15;37.37
12594;BME280;6362;50.208;9.182;2023-02-28T10:03:42;100981.19;;;5.20;36.69
12594;BME280;6362;50.208;9.182;2023-02-28T10:06:18;100986.41;;;4.94;37.00
12594;BME280;6362;50.208;9.182;2023-02-28T10:09:08;100989.25;;;4.76;38.09
12594;BME280;6362;50.208;9.182;2023-02-28T10:11:39;100991.47;;;4.91;37.69
12594;BME280;6362;50.208;9.182;2023-02-28T10:14:12;100992.25;;;4.63;37.45
12594;BME280;6362;50.208;9.182;2023-02-28T10:19:22;100998.13;;;4.59;38.81
12594;BME280;6362;50.208;9.182;2023-02-28T10:22:10;100997.13;;;4.81;38.92
12594;BME280;6362;50.208;9.182;2023-02-28T10:24:45;100991.75;;;4.73;38.94
12594;BME280;6362;50.208;9.182;2023-02-28T10:27:20;101005.69;;;4.55;38.53
12594;BME280;6362;50.208;9.182;2023-02-28T10:29:55;101002.88;;;4.72;38.52
12594;BME280;6362;50.208;9.182;2023-02-28T10:32:25;101002.31;;;4.56;38.31
12594;BME280;6362;50.208;9.182;2023-02-28T10:35:09;101003.91;;;4.78;38.43
12594;BME280;6362;50.208;9.182;2023-02-28T10:37:42;101010.97;;;4.83;38.70
12594;BME280;6362;50.208;9.182;2023-02-28T10:45:23;100997.13;;;5.92;37.39
12594;BME280;6362;50.208;9.182;2023-02-28T10:50:51;100983.50;;;6.96;34.32
12594;BME280;6362;50.208;9.182;2023-02-28T10:56:03;100981.66;;;7.28;34.19
12594;BME280;6362;50.208;9.182;2023-02-28T11:01:24;100980.72;;;8.51;32.61
12594;BME280;6362;50.208;9.182;2023-02-28T11:03:51;100978.22;;;8.57;32.39
12594;BME280;6362;50.208;9.182;2023-02-28T11:06:29;100979.75;;;8.97;32.51
12594;BME280;6362;50.208;9.182;2023-02-28T11:09:00;100977.78;;;8.34;31.21
12594;BME280;6362;50.208;9.182;2023-02-28T11:11:28;100973.03;;;7.68;31.91
12594;BME280;6362;50.208;9.182;2023-02-28T11:14:02;100965.88;;;7.99;31.72
12594;BME280;6362;50.208;9.182;2023-02-28T11:16:33;100968.13;;;8.26;31.88
12594;BME280;6362;50.208;9.182;2023-02-28T11:19:00;100966.06;;;7.65;31.47
12594;BME280;6362;50.208;9.182;2023-02-28T11:21:29;100959.25;;;7.69;32.13
12594;BME280;6362;50.208;9.182;2023-02-28T11:24:05;100960.56;;;7.91;32.15
12594;BME280;6362;50.208;9.182;2023-02-28T11:26:41;100950.22;;;8.38;30.71
12594;BME280;6362;50.208;9.182;2023-02-28T11:29:17;100961.88;;;8.14;32.16
12594;BME280;6362;50.208;9.182;2023-02-28T11:34:46;100952.88;;;8.92;31.28
12594;BME280;6362;50.208;9.182;2023-02-28T11:37:16;100956.81;;;8.67;31.46
12594;BME280;6362;50.208;9.182;2023-02-28T11:39:43;100951.81;;;8.81;31.32
12594;BME280;6362;50.208;9.182;2023-02-28T11:42:34;100949.66;;;9.72;30.62
12594;BME280;6362;50.208;9.182;2023-02-28T11:53:04;100954.16;;;9.86;30.27
12594;BME280;6362;50.208;9.182;2023-02-28T11:55:43;100951.13;;;8.93;29.93
12594;BME280;6362;50.208;9.182;2023-02-28T12:06:31;100953.97;;;10.46;29.32
12594;BME280;6362;50.208;9.182;2023-02-28T12:09:20;100947.34;;;10.83;27.62
12594;BME280;6362;50.208;9.182;2023-02-28T12:11:56;100947.44;;;10.97;27.52
12594;BME280;6362;50.208;9.182;2023-02-28T12:27:22;100935.34;;;11.07;26.88
12594;BME280;6362;50.208;9.182;2023-02-28T12:30:03;100957.09;;;11.14;27.44
12594;BME280;6362;50.208;9.182;2023-02-28T12:32:39;100940.00;;;11.63;27.15
12594;BME280;6362;50.208;9.182;2023-02-28T12:35:11;100939.25;;;11.87;27.06
12594;BME280;6362;50.208;9.182;2023-02-28T12:37:41;100938.25;;;11.65;26.60
12594;BME280;6362;50.208;9.182;2023-02-28T12:40:15;100942.47;;;11.34;27.23
12594;BME280;6362;50.208;9.182;2023-02-28T12:42:47;100941.06;;;10.60;27.95
12594;BME280;6362;50.208;9.182;2023-02-28T12:45:23;100940.38;;;10.82;28.88
12594;BME280;6362;50.208;9.182;2023-02-28T12:48:04;100927.59;;;11.15;27.72
12594;BME280;6362;50.208;9.182;2023-02-28T12:50:32;100923.59;;;11.82;26.52
12594;BME280;6362;50.208;9.182;2023-02-28T12:53:12;100925.31;;;11.77;25.71
12594;BME280;6362;50.208;9.182;2023-02-28T12:55:48;100927.03;;;11.80;26.22
12594;BME280;6362;50.208;9.182;2023-02-28T12:58:41;100920.75;;;11.38;26.85
12594;BME280;6362;50.208;9.182;2023-02-28T13:09:31;100906.28;;;13.04;25.28
12594;BME280;6362;50.208;9.182;2023-02-28T13:11:57;100908.81;;;13.42;24.77
12594;BME280;6362;50.208;9.182;2023-02-28T13:19:34;100910.53;;;13.55;24.79
12594;BME280;6362;50.208;9.182;2023-02-28T13:22:00;100906.06;;;13.80;24.34
12594;BME280;6362;50.208;9.182;2023-02-28T13:29:35;100900.66;;;14.11;23.84
12594;BME280;6362;50.208;9.182;2023-02-28T13:34:38;100894.41;;;14.33;23.48
12594;BME280;6362;50.208;9.182;2023-02-28T13:47:40;100898.06;;;14.03;23.84
12594;BME280;6362;50.208;9.182;2023-02-28T13:55:50;100891.69;;;14.44;23.36
12594;BME280;6362;50.208;9.182;2023-02-28T14:06:37;100893.13;;;13.48;24.64
12594;BME280;6362;50.208;9.182;2023-02-28T14:11:39;100874.31;;;14.35;23.22
12594;BME280;6362;50.208;9.182;2023-02-28T14:14:07;100879.09;;;14.87;23.11
12594;BME280;6362;50.208;9.182;2023-02-28T14:16:46;100871.81;;;15.15;22.72
12594;BME280;6362;50.208;9.182;2023-02-28T14:19:17;100869.97;;;14.31;24.23
12594;BME280;6362;50.208;9.182;2023-02-28T14:22:12;100869.41;;;13.86;23.75
12594;BME280;6362;50.208;9.182;2023-02-28T14:32:35;100867.16;;;12.91;25.20
12594;BME280;6362;50.208;9.182;2023-02-28T14:37:38;100867.19;;;12.64;26.21
12594;BME280;6362;50.208;9.182;2023-02-28T14:40:11;100864.59;;;12.18;26.23
12594;BME280;6362;50.208;9.182;2023-02-28T14:42:37;100865.66;;;10.63;27.96
12594;BME280;6362;50.208;9.182;2023-02-28T14:45:18;100862.94;;;10.48;29.11
12594;BME280;6362;50.208;9.182;2023-02-28T14:47:43;100858.34;;;10.21;28.88
12594;BME280;6362;50.208;9.182;2023-02-28T14:50:18;100861.94;;;10.30;29.51
12594;BME280;6362;50.208;9.182;2023-02-28T14:52:44;100850.22;;;9.84;29.49
12594;BME280;6362;50.208;9.182;2023-02-28T14:55:14;100857.66;;;9.52;31.07
12594;BME280;6362;50.208;9.182;2023-02-28T14:58:00;100850.00;;;9.64;31.28
12594;BME280;6362;50.208;9.182;2023-02-28T15:00:33;100851.25;;;9.25;31.27
12594;BME280;6362;50.208;9.182;2023-02-28T15:03:00;100853.19;;;9.40;31.08
12594;BME280;6362;50.208;9.182;2023-02-28T15:10:32;100851.19;;;9.18;32.38
12594;BME280;6362;50.208;9.182;2023-02-28T15:13:05;100850.41;;;9.26;31.34
12594;BME280;6362;50.208;9.182;2023-02-28T15:21:09;100852.34;;;9.43;31.29
12594;BME280;6362;50.208;9.182;2023-02-28T15:23:37;100858.97;;;9.16;31.71
12594;BME280;6362;50.208;9.182;2023-02-28T15:26:04;100862.38;;;8.55;33.27
12594;BME280;6362;50.208;9.182;2023-02-28T15:28:30;100869.72;;;7.82;34.07
12594;BME280;6362;50.208;9.182;2023-02-28T15:31:02;100864.53;;;7.82;34.32
12594;BME280;6362;50.208;9.182;2023-02-28T15:33:32;100856.56;;;7.27;35.72
12594;BME280;6362;50.208;9.182;2023-02-28T15:36:26;100866.13;;;6.89;36.45
12594;BME280;6362;50.208;9.182;2023-02-28T15:38:56;100868.06;;;6.61;36.66
12594;BME280;6362;50.208;9.182;2023-02-28T15:41:29;100867.19;;;6.26;37.82
12594;BME280;6362;50.208;9.182;2023-02-28T15:46:52;100863.53;;;6.17;37.91
12594;BME280;6362;50.208;9.182;2023-02-28T15:49:37;100865.28;;;5.86;38.30
12594;BME280;6362;50.208;9.182;2023-02-28T15:52:04;100865.50;;;5.62;39.41
12594;BME280;6362;50.208;9.182;2023-02-28T15:57:38;100857.09;;;5.09;40.72